createdAt,value
2023-05-19T00:02:52.012Z,13.9
2023-05-19T00:22:51.942Z,13.9
2023-05-19T00:42:51.921Z,13.91
2023-05-19T02:02:51.742Z,13.93
2023-05-19T02:22:51.711Z,13.93
2023-05-19T02:42:51.679Z,13.94
2023-05-19T03:22:51.624Z,13.94
2023-05-19T03:42:51.621Z,13.94
2023-05-19T04:02:51.575Z,13.94
2023-05-19T04:22:51.492Z,13.94
2023-05-19T04:42:51.498Z,13.94
2023-05-19T05:02:51.527Z,13.94
2023-05-19T05:22:51.420Z,13.94
2023-05-19T05:42:51.395Z,13.94
2023-05-19T06:02:51.459Z,13.94
2023-05-19T06:22:51.339Z,13.94
2023-05-19T06:42:51.288Z,13.94
2023-05-19T07:02:51.418Z,13.94
2023-05-19T07:22:50.965Z,13.94
2023-05-19T07:42:51.190Z,13.94
2023-05-19T08:02:51.234Z,13.94
2023-05-19T08:22:51.130Z,13.94
2023-05-19T08:42:50.847Z,13.94
2023-05-19T09:02:55.519Z,13.94
2023-05-19T09:22:51.021Z,13.94
2023-05-19T09:42:50.987Z,13.94
2023-05-19T10:02:51.007Z,13.94
2023-05-19T10:22:50.930Z,13.94
2023-05-19T10:42:50.886Z,13.93
2023-05-19T13:22:50.583Z,13.89
2023-05-19T13:42:50.619Z,13.88
2023-05-19T14:02:50.604Z,13.87
2023-05-19T14:22:50.493Z,13.87
2023-05-19T14:42:50.450Z,13.86
2023-05-19T15:02:50.490Z,13.86
2023-05-19T15:22:50.127Z,13.85
2023-05-19T15:42:50.367Z,13.85
2023-05-19T16:22:50.302Z,13.85
2023-05-19T16:42:50.236Z,13.85
2023-05-19T17:02:50.268Z,13.85
2023-05-19T17:22:50.174Z,13.84
2023-05-19T17:42:49.870Z,13.84
2023-05-19T18:02:50.127Z,13.85
2023-05-19T18:22:50.053Z,13.85
2023-05-19T18:42:50.026Z,13.85
2023-05-19T19:02:50.039Z,13.85
2023-05-19T19:22:49.946Z,13.85
2023-05-19T19:42:49.941Z,13.85
2023-05-19T20:03:03.394Z,13.85
2023-05-19T20:22:49.854Z,13.86
2023-05-19T20:42:49.806Z,13.86
2023-05-19T21:02:49.772Z,13.87
2023-05-19T21:22:49.741Z,13.88
2023-05-19T21:42:49.683Z,13.89
2023-05-19T22:02:49.753Z,13.9
2023-05-19T22:22:49.627Z,13.91
2023-05-19T22:42:49.596Z,13.91
2023-05-19T23:02:49.657Z,13.92
2023-05-19T23:22:49.552Z,13.93
2023-05-19T23:42:49.530Z,13.93
